Time;durP1;ratioP1;P1;durP2;ratioP2;P2;SDS_P1;SDS_P2;PMS_P1;PMS_P2;Temp;Humidity;BMP_temperature;BMP_pressure;BME280_temperature;BME280_humidity;BME280_pressure;Samples;Min_cycle;Max_cycle;Signal;HPM_P1;HPM_P2
2023/07/02 00:01:30;;;;;;;13.73;7.25;;;17.60;1.00;;;;;;5079678;28;20212;-90
2023/07/02 00:03:57;;;;;;;15.80;7.32;;;17.60;1.00;;;;;;5078867;28;20203;-88
2023/07/02 00:06:25;;;;;;;18.73;7.53;;;17.50;1.00;;;;;;5079054;28;20208;-88
2023/07/02 00:08:52;;;;;;;16.73;7.13;;;17.50;99.90;;;;;;5079238;28;20207;-87
2023/07/02 00:11:18;;;;;;;17.35;7.90;;;17.50;99.90;;;;;;5078982;28;20208;-87
2023/07/02 00:13:47;;;;;;;15.13;7.30;;;17.50;1.00;;;;;;5078273;28;20201;-89
2023/07/02 00:16:14;;;;;;;21.27;8.02;;;17.50;1.00;;;;;;5080148;28;20283;-88
2023/07/02 00:18:41;;;;;;;16.20;7.50;;;17.40;53.70;;;;;;5099014;28;20205;-87
2023/07/02 00:21:12;;;;;;;17.83;7.85;;;17.40;99.90;;;;;;5098425;28;20652;-89
2023/07/02 00:23:39;;;;;;;18.25;7.68;;;17.40;1.00;;;;;;5098898;28;20216;-88
2023/07/02 00:26:06;;;;;;;22.02;9.88;;;17.30;1.00;;;;;;5081018;28;20519;-82
2023/07/02 00:28:33;;;;;;;17.73;7.60;;;17.30;99.90;;;;;;5077050;28;20555;-88
2023/07/02 00:31:02;;;;;;;18.45;7.90;;;17.20;1.00;;;;;;5077122;28;20723;-91
2023/07/02 00:33:29;;;;;;;17.25;7.90;;;17.20;45.00;;;;;;5077489;28;20205;-88
2023/07/02 00:35:56;;;;;;;16.77;7.13;;;17.10;1.00;;;;;;5076408;28;20205;-89
2023/07/02 00:38:23;;;;;;;18.90;8.38;;;17.10;99.90;;;;;;5077033;28;20239;-87
2023/07/02 00:40:50;;;;;;;21.23;7.63;;;17.10;99.90;;;;;;5077257;28;20205;-86
2023/07/02 00:43:17;;;;;;;14.73;7.75;;;17.10;1.00;;;;;;5077200;28;20220;-86
2023/07/02 00:45:46;;;;;;;16.30;8.02;;;17.10;99.90;;;;;;5078063;28;20201;-86
2023/07/02 00:48:14;;;;;;;19.95;8.02;;;17.10;1.00;;;;;;5077653;28;20221;-82
2023/07/02 00:50:41;;;;;;;17.30;8.02;;;17.10;99.90;;;;;;5076839;28;20205;-87
2023/07/02 00:53:09;;;;;;;19.77;8.02;;;17.10;29.10;;;;;;5076465;28;20239;-87
2023/07/02 00:55:35;;;;;;;19.25;7.78;;;17.00;1.00;;;;;;5076311;28;20563;-88
2023/07/02 00:58:02;;;;;;;24.45;8.20;;;17.00;1.00;;;;;;5076711;28;20665;-80
2023/07/02 01:00:30;;;;;;;23.38;8.70;;;17.00;99.90;;;;;;5077786;28;20204;-79
2023/07/02 01:02:58;;;;;;;17.02;8.07;;;17.00;90.70;;;;;;5076547;28;20221;-85
2023/07/02 01:05:35;;;;;;;17.65;7.30;;;16.90;41.40;;;;;;5076883;28;20240;-79
2023/07/02 01:08:02;;;;;;;18.20;7.68;;;17.00;99.90;;;;;;5077436;28;20189;-81
2023/07/02 01:10:30;;;;;;;20.45;7.78;;;16.90;99.90;;;;;;5078005;28;20213;-87
2023/07/02 01:13:01;;;;;;;19.95;7.57;;;17.00;1.00;;;;;;5077266;28;20484;-83
2023/07/02 01:15:28;;;;;;;17.48;7.72;;;17.00;99.90;;;;;;5078104;28;20247;-89
2023/07/02 01:17:56;;;;;;;18.15;7.85;;;17.00;1.00;;;;;;5077427;28;20196;-88
2023/07/02 01:20:27;;;;;;;23.13;8.02;;;17.00;1.00;;;;;;5077553;28;20277;-88
2023/07/02 01:22:54;;;;;;;17.35;7.15;;;17.00;1.00;;;;;;5077513;28;20232;-89
2023/07/02 01:25:24;;;;;;;16.50;7.28;;;17.00;1.00;;;;;;5077758;28;20303;-86
2023/07/02 01:27:53;;;;;;;18.17;7.93;;;17.00;1.00;;;;;;5077339;28;20208;-89
2023/07/02 01:30:20;;;;;;;14.57;7.07;;;16.90;1.00;;;;;;5077373;28;20237;-83
2023/07/02 01:32:47;;;;;;;19.58;8.27;;;16.90;1.00;;;;;;5077102;28;20233;-84
2023/07/02 01:35:16;;;;;;;15.70;7.60;;;16.90;99.90;;;;;;5077695;28;20209;-89
2023/07/02 01:37:44;;;;;;;21.65;8.07;;;16.80;1.00;;;;;;5077410;28;20804;-87
2023/07/02 01:40:11;;;;;;;18.58;7.85;;;16.90;1.00;;;;;;5093665;28;20658;-91
2023/07/02 01:42:39;;;;;;;18.65;8.35;;;16.90;1.00;;;;;;5097737;28;20221;-91
2023/07/02 01:45:07;;;;;;;22.10;8.80;;;16.80;99.90;;;;;;5091679;28;20233;-89
2023/07/02 01:47:34;;;;;;;16.50;7.45;;;16.80;99.90;;;;;;5077062;28;20217;-89
2023/07/02 01:50:01;;;;;;;21.27;8.70;;;16.80;1.00;;;;;;5076605;28;20244;-90
2023/07/02 01:52:29;;;;;;;18.70;7.85;;;16.80;1.00;;;;;;5094907;28;20196;-84
2023/07/02 01:54:57;;;;;;;21.35;8.20;;;16.80;1.00;;;;;;5097325;28;20706;-79
2023/07/02 01:57:24;;;;;;;19.85;8.85;;;16.80;1.00;;;;;;5097015;28;20220;-81
2023/07/02 01:59:51;;;;;;;21.38;8.20;;;16.80;99.90;;;;;;5086849;28;20280;-85
2023/07/02 02:02:18;;;;;;;18.95;7.95;;;16.80;99.90;;;;;;5076031;28;20217;-88
2023/07/02 02:04:45;;;;;;;23.05;8.65;;;16.80;1.00;;;;;;5076073;28;20236;-87
2023/07/02 02:07:12;;;;;;;23.25;8.27;;;16.70;1.00;;;;;;5081244;28;20253;-82
2023/07/02 02:09:39;;;;;;;21.60;8.85;;;16.70;1.00;;;;;;5096285;28;20588;-85
2023/07/02 02:12:08;;;;;;;19.35;8.13;;;16.70;1.00;;;;;;5096156;28;20216;-88
2023/07/02 02:14:35;;;;;;;21.85;9.07;;;16.70;1.00;;;;;;5096819;28;20200;-81
2023/07/02 02:17:02;;;;;;;20.77;8.38;;;16.60;99.90;;;;;;5095284;28;20390;-79
2023/07/02 02:19:29;;;;;;;21.63;8.30;;;16.60;1.00;;;;;;5076199;28;20190;-83
2023/07/02 02:21:56;;;;;;;20.40;8.30;;;16.60;99.90;;;;;;5076142;28;20225;-90
2023/07/02 02:24:23;;;;;;;19.93;8.07;;;16.60;99.90;;;;;;5086508;28;20228;-87
2023/07/02 02:26:50;;;;;;;27.48;9.32;;;16.60;1.00;;;;;;5096704;28;20623;-88
2023/07/02 02:29:18;;;;;;;19.08;8.07;;;16.60;99.90;;;;;;5084822;28;20613;-87
2023/07/02 02:31:45;;;;;;;22.60;8.90;;;16.60;1.00;;;;;;5076696;28;20224;-89
2023/07/02 02:34:12;;;;;;;18.40;7.90;;;16.60;99.90;;;;;;5076234;28;20193;-84
2023/07/02 02:36:39;;;;;;;18.88;8.10;;;16.50;99.90;;;;;;5076275;28;20229;-87
2023/07/02 02:39:06;;;;;;;22.10;8.50;;;16.50;99.90;;;;;;5076214;28;20519;-88
2023/07/02 02:41:33;;;;;;;20.10;7.80;;;16.50;99.90;;;;;;5076327;28;20205;-90
2023/07/02 02:44:00;;;;;;;21.50;8.60;;;16.50;1.00;;;;;;5075925;28;20229;-92
2023/07/02 02:46:28;;;;;;;20.27;9.02;;;16.50;99.90;;;;;;5075932;28;20233;-88
2023/07/02 02:48:55;;;;;;;24.13;8.80;;;16.50;99.90;;;;;;5076043;28;20647;-85
2023/07/02 02:51:22;;;;;;;20.05;8.55;;;16.50;1.00;;;;;;5082326;28;20243;-86
2023/07/02 02:53:49;;;;;;;17.50;7.83;;;16.40;1.00;;;;;;5096063;28;20193;-77
2023/07/02 02:56:16;;;;;;;23.83;8.45;;;16.40;1.00;;;;;;5095103;28;20285;-86
2023/07/02 02:58:43;;;;;;;27.25;9.40;;;16.40;99.90;;;;;;5092927;28;20196;-82
2023/07/02 03:01:10;;;;;;;19.23;8.53;;;16.40;1.00;;;;;;5075355;28;20201;-87
2023/07/02 03:03:39;;;;;;;18.30;8.18;;;16.40;1.00;;;;;;5074597;28;20279;-79
2023/07/02 03:06:06;;;;;;;28.17;9.13;;;16.30;1.00;;;;;;5075449;28;20652;-89
2023/07/02 03:08:33;;;;;;;20.83;8.63;;;16.30;99.90;;;;;;5080539;28;20284;-88
2023/07/02 03:11:00;;;;;;;22.65;8.85;;;16.30;99.90;;;;;;5095761;28;20642;-86
2023/07/02 03:13:27;;;;;;;18.27;8.43;;;16.30;99.90;;;;;;5095162;28;20589;-83
2023/07/02 03:15:54;;;;;;;19.15;8.05;;;16.30;99.90;;;;;;5084754;28;20292;-88
2023/07/02 03:18:21;;;;;;;19.93;8.40;;;16.30;99.90;;;;;;5075773;28;20196;-87
2023/07/02 03:20:49;;;;;;;20.38;8.52;;;16.30;10.20;;;;;;5075994;28;20236;-90
2023/07/02 03:23:16;;;;;;;25.25;8.73;;;16.20;99.90;;;;;;5075386;28;20612;-86
2023/07/02 03:25:43;;;;;;;19.70;8.73;;;16.20;1.00;;;;;;5075928;28;20224;-91
2023/07/02 03:28:10;;;;;;;20.10;7.80;;;16.20;1.00;;;;;;5075627;28;20201;-88
2023/07/02 03:30:37;;;;;;;23.15;8.27;;;16.20;99.90;;;;;;5075275;28;20205;-88
2023/07/02 03:33:04;;;;;;;25.05;9.07;;;16.20;1.00;;;;;;5075230;28;20209;-92
2023/07/02 03:35:31;;;;;;;18.60;7.63;;;16.20;1.00;;;;;;5075761;28;20258;-89
2023/07/02 03:37:59;;;;;;;21.17;8.17;;;16.20;1.00;;;;;;5084982;28;20235;-80
2023/07/02 03:40:26;;;;;;;19.70;8.33;;;16.20;1.00;;;;;;5096021;28;20275;-83
2023/07/02 03:42:53;;;;;;;20.92;8.35;;;16.20;1.00;;;;;;5095433;28;20218;-90
2023/07/02 03:45:20;;;;;;;22.42;8.55;;;16.20;1.00;;;;;;5075524;28;20224;-92
2023/07/02 03:47:46;;;;;;;24.90;7.88;;;16.10;1.00;;;;;;5074921;28;20685;-86
2023/07/02 03:50:13;;;;;;;21.40;8.47;;;16.10;1.00;;;;;;5075546;28;20240;-89
2023/07/02 03:52:40;;;;;;;23.23;8.63;;;16.10;1.00;;;;;;5075314;28;20207;-86
2023/07/02 03:55:09;;;;;;;19.83;7.80;;;16.10;1.00;;;;;;5075063;28;20235;-90
2023/07/02 03:57:36;;;;;;;25.55;7.97;;;16.20;1.00;;;;;;5075198;28;20258;-88
2023/07/02 04:00:05;;;;;;;20.27;8.35;;;16.10;1.00;;;;;;5075267;28;20193;-85
2023/07/02 04:02:32;;;;;;;22.08;7.97;;;16.10;1.00;;;;;;5075572;28;20221;-84
2023/07/02 04:04:59;;;;;;;19.38;8.43;;;16.20;1.00;;;;;;5075145;28;20261;-90
2023/07/02 04:07:26;;;;;;;18.17;7.57;;;16.20;1.00;;;;;;5074669;28;20561;-77
2023/07/02 04:09:53;;;;;;;23.50;8.23;;;16.10;1.00;;;;;;5074722;28;20235;-86
2023/07/02 04:12:21;;;;;;;18.63;7.73;;;16.20;1.00;;;;;;5074156;28;20233;-83
2023/07/02 04:14:48;;;;;;;24.65;9.02;;;16.10;1.00;;;;;;5074233;28;20193;-85
2023/07/02 04:17:15;;;;;;;18.07;8.40;;;16.10;1.00;;;;;;5074384;28;20284;-79
2023/07/02 04:19:42;;;;;;;20.70;8.25;;;16.10;1.00;;;;;;5074730;28;20228;-86
2023/07/02 04:22:08;;;;;;;22.07;7.67;;;16.10;15.70;;;;;;5074567;28;20237;-84
2023/07/02 04:24:35;;;;;;;22.35;8.95;;;16.20;18.30;;;;;;5077028;28;20253;-84
2023/07/02 04:27:02;;;;;;;16.23;6.60;;;16.20;50.60;;;;;;5077547;28;20284;-88
2023/07/02 04:29:31;;;;;;;19.10;7.53;;;16.20;1.00;;;;;;5078063;28;20200;-86
2023/07/02 04:31:58;;;;;;;18.27;6.87;;;16.20;1.00;;;;;;5078171;28;20193;-85
2023/07/02 04:34:24;;;;;;;13.63;6.90;;;16.20;1.00;;;;;;5077734;28;20280;-86
2023/07/02 04:36:51;;;;;;;16.33;6.87;;;16.20;1.00;;;;;;5097744;28;20269;-83
2023/07/02 04:39:18;;;;;;;20.30;7.23;;;16.20;1.00;;;;;;5098039;28;20201;-81
2023/07/02 04:41:45;;;;;;;20.55;7.43;;;16.20;1.00;;;;;;5098073;28;20254;-84
2023/07/02 04:44:12;;;;;;;20.87;7.83;;;16.20;1.00;;;;;;5097875;28;20698;-84
2023/07/02 04:46:40;;;;;;;21.02;7.13;;;16.20;1.00;;;;;;5098426;28;20277;-84
2023/07/02 04:49:07;;;;;;;19.85;6.95;;;16.20;1.00;;;;;;5097334;28;20593;-85
2023/07/02 04:51:34;;;;;;;16.63;6.60;;;16.20;1.00;;;;;;5099576;28;20207;-80
2023/07/02 04:54:01;;;;;;;19.38;6.75;;;16.20;1.00;;;;;;5088751;28;20216;-82
2023/07/02 04:56:28;;;;;;;17.65;6.30;;;16.30;1.00;;;;;;5080340;28;20201;-83
2023/07/02 04:58:55;;;;;;;18.40;7.03;;;16.20;1.00;;;;;;5080682;28;20262;-88
2023/07/02 05:01:22;;;;;;;16.05;6.82;;;16.30;1.00;;;;;;5080395;28;20236;-86
2023/07/02 05:03:51;;;;;;;15.27;6.82;;;16.30;1.00;;;;;;5078887;28;20260;-87
2023/07/02 05:06:18;;;;;;;15.57;6.70;;;16.30;1.00;;;;;;5078892;28;20254;-79
2023/07/02 05:08:44;;;;;;;19.50;8.00;;;16.40;1.30;;;;;;5081661;28;20217;-78
2023/07/02 05:11:11;;;;;;;19.08;7.00;;;16.40;1.00;;;;;;5098458;28;20242;-80
2023/07/02 05:13:38;;;;;;;19.65;6.70;;;16.50;1.00;;;;;;5097460;28;20206;-81
2023/07/02 05:16:05;;;;;;;17.15;6.55;;;16.50;1.00;;;;;;5098224;28;20224;-84
2023/07/02 05:18:32;;;;;;;21.70;7.88;;;16.60;1.00;;;;;;5082330;28;20243;-85
2023/07/02 05:21:00;;;;;;;18.70;6.90;;;16.60;1.00;;;;;;5078574;28;20597;-87
2023/07/02 05:23:27;;;;;;;17.95;7.35;;;16.60;1.00;;;;;;5082014;28;20319;-88
2023/07/02 05:25:54;;;;;;;15.60;6.60;;;16.60;1.00;;;;;;5098433;28;20192;-87
2023/07/02 05:28:21;;;;;;;14.85;6.00;;;16.60;1.00;;;;;;5100669;28;20601;-85
2023/07/02 05:30:48;;;;;;;15.30;6.55;;;16.60;1.00;;;;;;5100777;28;20205;-84
2023/07/02 05:33:15;;;;;;;17.65;6.30;;;16.70;1.00;;;;;;5102786;28;20291;-81
2023/07/02 05:35:42;;;;;;;17.63;6.07;;;16.70;1.00;;;;;;5100946;28;20244;-85
2023/07/02 05:38:10;;;;;;;14.45;6.63;;;16.80;1.00;;;;;;5088179;28;20205;-87
2023/07/02 05:40:37;;;;;;;19.17;6.60;;;16.90;1.00;;;;;;5080750;28;20292;-84
2023/07/02 05:43:04;;;;;;;13.68;6.70;;;17.10;99.90;;;;;;5080319;28;20765;-90
2023/07/02 05:45:31;;;;;;;18.52;7.10;;;17.20;99.90;;;;;;5080821;28;20256;-88
2023/07/02 05:47:58;;;;;;;16.88;6.43;;;17.30;99.90;;;;;;5082527;28;20245;-85
2023/07/02 05:50:25;;;;;;;14.13;6.05;;;17.50;99.90;;;;;;5079752;28;20205;-89
2023/07/02 05:52:52;;;;;;;18.33;6.68;;;17.70;99.90;;;;;;5089831;28;20211;-90
2023/07/02 05:55:20;;;;;;;21.17;7.35;;;17.90;1.00;;;;;;5097474;28;20197;-90
2023/07/02 05:57:47;;;;;;;13.82;5.40;;;17.90;4.20;;;;;;5097111;28;20203;-85
2023/07/02 06:00:15;;;;;;;17.45;6.90;;;17.80;1.00;;;;;;5096510;28;20288;-86
2023/07/02 06:02:42;;;;;;;14.35;6.57;;;17.80;1.00;;;;;;5096983;28;20220;-88
2023/07/02 06:05:09;;;;;;;16.15;6.00;;;17.90;99.90;;;;;;5097369;28;20305;-86
2023/07/02 06:07:36;;;;;;;18.10;7.05;;;18.10;96.10;;;;;;5085219;28;20298;-87
2023/07/02 06:10:04;;;;;;;18.02;7.00;;;18.10;1.00;;;;;;5076855;28;20200;-87
2023/07/02 06:12:32;;;;;;;13.75;6.43;;;18.30;88.20;;;;;;5076886;28;20244;-84
2023/07/02 06:14:59;;;;;;;16.35;6.70;;;18.20;1.00;;;;;;5083510;28;20208;-88
2023/07/02 06:17:26;;;;;;;16.67;6.30;;;18.30;1.00;;;;;;5097114;28;20230;-91
2023/07/02 06:19:53;;;;;;;21.27;7.25;;;18.50;1.00;;;;;;5096472;28;20232;-90
2023/07/02 06:22:20;;;;;;;18.35;6.28;;;18.50;1.00;;;;;;5090158;28;20197;-90
2023/07/02 06:24:47;;;;;;;16.55;5.97;;;18.50;1.00;;;;;;5076240;28;20271;-89
2023/07/02 06:27:14;;;;;;;15.02;6.50;;;18.40;1.00;;;;;;5076078;28;20266;-85
2023/07/02 06:29:42;;;;;;;16.80;6.63;;;18.20;1.00;;;;;;5076382;28;20620;-86
2023/07/02 06:32:09;;;;;;;17.00;6.55;;;18.10;1.00;;;;;;5076570;28;20534;-87
2023/07/02 06:34:36;;;;;;;16.25;6.03;;;18.20;99.90;;;;;;5078524;28;20201;-80
2023/07/02 06:37:03;;;;;;;15.88;6.57;;;18.30;1.00;;;;;;5096507;28;20207;-87
2023/07/02 06:39:30;;;;;;;12.85;6.13;;;18.20;99.90;;;;;;5094360;28;20192;-90
2023/07/02 06:41:57;;;;;;;16.92;5.97;;;18.30;99.90;;;;;;5075996;28;20207;-79
2023/07/02 06:44:24;;;;;;;13.30;5.97;;;18.20;99.90;;;;;;5080430;28;20244;-86
2023/07/02 06:46:52;;;;;;;15.98;6.63;;;18.20;1.00;;;;;;5093396;28;20285;-83
2023/07/02 06:49:19;;;;;;;18.98;6.38;;;18.30;99.90;;;;;;5087646;28;20223;-82
2023/07/02 06:51:46;;;;;;;15.30;6.40;;;18.10;1.00;;;;;;5075791;28;20554;-80
2023/07/02 06:54:13;;;;;;;16.42;6.93;;;18.10;99.90;;;;;;5075369;28;20219;-79
2023/07/02 06:56:40;;;;;;;14.85;6.30;;;18.30;1.00;;;;;;5093688;28;20215;-84
2023/07/02 06:59:07;;;;;;;19.13;7.20;;;18.60;1.00;;;;;;5095827;28;20203;-89
2023/07/02 07:01:35;;;;;;;17.63;6.97;;;18.80;1.00;;;;;;5095209;28;20227;-87
2023/07/02 07:04:03;;;;;;;14.52;6.40;;;19.00;1.00;;;;;;5083049;28;20529;-83
2023/07/02 07:06:30;;;;;;;16.70;6.38;;;19.00;99.90;;;;;;5075014;28;20250;-80
2023/07/02 07:08:57;;;;;;;16.50;6.72;;;19.00;1.00;;;;;;5074431;28;20259;-84
2023/07/02 07:11:24;;;;;;;19.33;6.53;;;18.90;35.80;;;;;;5074723;28;20225;-76
2023/07/02 07:13:51;;;;;;;13.75;5.80;;;18.80;1.00;;;;;;5075458;28;20207;-83
2023/07/02 07:16:18;;;;;;;14.02;6.70;;;18.90;99.90;;;;;;5094655;28;20227;-87
2023/07/02 07:18:45;;;;;;;16.02;6.60;;;19.20;48.50;;;;;;5094494;28;20205;-83
2023/07/02 07:21:14;;;;;;;17.13;7.15;;;19.40;1.00;;;;;;5095283;28;20687;-90
2023/07/02 07:23:41;;;;;;;16.30;5.72;;;19.70;1.00;;;;;;5094268;28;20588;-82
2023/07/02 07:26:08;;;;;;;16.02;6.25;;;19.90;1.00;;;;;;5082189;28;20215;-87
2023/07/02 07:28:35;;;;;;;15.70;6.35;;;20.00;1.00;;;;;;5074957;28;20239;-85
2023/07/02 07:31:02;;;;;;;18.55;6.90;;;20.20;99.90;;;;;;5074987;28;20473;-86
2023/07/02 07:33:29;;;;;;;17.33;6.20;;;20.30;1.00;;;;;;5075498;28;20239;-89
2023/07/02 07:35:56;;;;;;;16.10;5.70;;;20.50;99.90;;;;;;5074496;28;20744;-84
2023/07/02 07:38:24;;;;;;;13.07;5.82;;;20.80;1.00;;;;;;5074418;28;20243;-86
2023/07/02 07:40:51;;;;;;;13.40;5.50;;;21.10;1.00;;;;;;5078224;28;20604;-87
2023/07/02 07:43:18;;;;;;;11.43;5.38;;;21.10;69.00;;;;;;5094131;28;20224;-83
2023/07/02 07:45:45;;;;;;;16.45;5.97;;;21.00;99.90;;;;;;5093836;28;20220;-82
2023/07/02 07:48:12;;;;;;;17.27;5.85;;;21.00;1.00;;;;;;5091574;28;20282;-83
2023/07/02 07:50:39;;;;;;;15.85;5.78;;;20.90;99.90;;;;;;5073936;28;20198;-86
2023/07/02 07:53:06;;;;;;;16.17;5.55;;;20.90;1.00;;;;;;5074344;28;20189;-86
2023/07/02 07:55:34;;;;;;;13.70;5.78;;;20.90;1.00;;;;;;5074580;28;20600;-88
2023/07/02 07:58:01;;;;;;;16.92;6.68;;;20.90;1.00;;;;;;5073927;28;20225;-83
2023/07/02 08:00:28;;;;;;;15.88;5.78;;;20.80;1.00;;;;;;5078166;28;20254;-88
2023/07/02 08:02:55;;;;;;;11.25;5.57;;;20.90;1.00;;;;;;5078809;28;20288;-88
2023/07/02 08:05:22;;;;;;;16.33;5.95;;;20.70;99.90;;;;;;5077387;28;20714;-84
2023/07/02 08:07:49;;;;;;;16.50;6.63;;;20.80;1.00;;;;;;5077685;28;20189;-79
2023/07/02 08:10:16;;;;;;;12.57;5.38;;;20.70;1.00;;;;;;5078012;28;20207;-86
2023/07/02 08:12:45;;;;;;;16.08;6.20;;;20.80;1.00;;;;;;5076979;28;20289;-86
2023/07/02 08:15:12;;;;;;;19.58;5.65;;;21.10;99.90;;;;;;5090720;28;20258;-84
2023/07/02 08:17:39;;;;;;;16.38;5.97;;;21.20;1.00;;;;;;5098998;28;20666;-89
2023/07/02 08:20:09;;;;;;;14.15;6.18;;;21.30;1.00;;;;;;5099457;28;20283;-91
2023/07/02 08:22:36;;;;;;;14.48;5.47;;;21.40;99.90;;;;;;5098742;28;20231;-84
2023/07/02 08:25:03;;;;;;;15.63;5.47;;;21.60;1.00;;;;;;5098683;28;20534;-90
2023/07/02 08:27:30;;;;;;;14.20;5.85;;;21.60;1.00;;;;;;5098752;28;20200;-87
2023/07/02 08:29:59;;;;;;;19.95;6.45;;;21.50;1.00;;;;;;5096023;28;20261;-86
2023/07/02 08:32:26;;;;;;;12.80;5.85;;;21.60;99.90;;;;;;5078571;28;20586;-88
2023/07/02 08:34:53;;;;;;;15.35;6.10;;;21.50;1.00;;;;;;5077975;28;20197;-86
2023/07/02 08:37:21;;;;;;;17.15;6.00;;;21.30;99.90;;;;;;5078502;28;20197;-88
2023/07/02 08:39:50;;;;;;;16.90;6.10;;;21.20;99.90;;;;;;5078187;28;20263;-84
2023/07/02 08:42:17;;;;;;;13.27;5.32;;;20.90;99.90;;;;;;5078430;28;20197;-86
2023/07/02 08:44:47;;;;;;;13.95;5.38;;;20.70;99.90;;;;;;5077227;28;20213;-85
2023/07/02 08:47:16;;;;;;;13.70;5.43;;;20.60;99.90;;;;;;5076410;28;20216;-87
2023/07/02 08:49:43;;;;;;;12.18;5.35;;;20.60;1.00;;;;;;5076970;28;20193;-89
2023/07/02 08:52:10;;;;;;;14.32;5.25;;;20.80;99.90;;;;;;5077805;28;20434;-88
2023/07/02 08:54:37;;;;;;;14.82;5.00;;;21.00;1.00;;;;;;5077792;28;20201;-88
2023/07/02 08:57:06;;;;;;;16.42;5.65;;;21.20;99.90;;;;;;5078100;28;20205;-88
2023/07/02 08:59:32;;;;;;;12.80;5.15;;;21.10;1.00;;;;;;5077751;28;20645;-87
2023/07/02 09:01:59;;;;;;;13.32;4.93;;;21.10;1.00;;;;;;5083591;28;20206;-87
2023/07/02 09:04:28;;;;;;;15.45;5.15;;;20.90;1.00;;;;;;5097138;28;20224;-86
2023/07/02 09:07:05;;;;;;;11.43;4.82;;;21.00;99.90;;;;;;5097004;28;20284;-90
2023/07/02 09:09:32;;;;;;;14.07;5.03;;;21.20;1.00;;;;;;5096428;28;20237;-89
2023/07/02 09:11:59;;;;;;;17.10;6.10;;;21.60;1.00;;;;;;5096988;28;20230;-87
2023/07/02 09:14:28;;;;;;;13.48;4.43;;;21.80;1.00;;;;;;5098389;28;20249;-87
2023/07/02 09:17:06;;;;;;;15.40;5.18;;;21.50;29.30;;;;;;5097692;28;20205;-83
2023/07/02 09:19:35;;;;;;;9.57;4.18;;;21.70;99.90;;;;;;5077995;28;20276;-87
2023/07/02 09:22:02;;;;;;;11.23;4.88;;;21.70;1.00;;;;;;5077583;28;20303;-86
2023/07/02 09:24:31;;;;;;;12.85;5.55;;;21.50;31.30;;;;;;5089911;28;20200;-88
2023/07/02 09:26:59;;;;;;;14.88;5.15;;;21.30;1.00;;;;;;5097938;28;20192;-91
2023/07/02 09:29:29;;;;;;;12.13;5.00;;;20.80;99.90;;;;;;5097042;28;20231;-85
2023/07/02 09:31:56;;;;;;;14.77;5.28;;;20.70;1.00;;;;;;5097412;28;20276;-89
2023/07/02 09:34:29;;;;;;;14.27;4.90;;;20.70;1.00;;;;;;5097853;28;20192;-88
2023/07/02 09:36:58;;;;;;;10.32;4.55;;;20.90;1.00;;;;;;5097022;28;20452;-83
2023/07/02 09:39:28;;;;;;;14.05;5.38;;;20.90;99.90;;;;;;5095817;28;20205;-86
2023/07/02 09:41:57;;;;;;;13.63;4.97;;;20.80;1.00;;;;;;5077337;28;20193;-89
2023/07/02 09:44:28;;;;;;;16.63;5.45;;;21.00;1.00;;;;;;5076708;28;20228;-82
2023/07/02 09:47:01;;;;;;;15.02;5.13;;;21.10;1.00;;;;;;5077414;28;20252;-90
2023/07/02 09:49:33;;;;;;;14.25;5.55;;;21.30;99.90;;;;;;5080159;28;20224;-87
2023/07/02 09:52:03;;;;;;;15.43;5.22;;;21.50;1.00;;;;;;5097320;28;20232;-89
2023/07/02 09:54:30;;;;;;;10.45;5.28;;;21.40;1.00;;;;;;5097408;28;20200;-86
2023/07/02 09:56:59;;;;;;;12.55;4.72;;;21.60;1.00;;;;;;5096933;28;20208;-86
2023/07/02 09:59:26;;;;;;;9.90;5.15;;;21.60;99.90;;;;;;5097449;28;20291;-87
2023/07/02 10:01:53;;;;;;;13.13;5.38;;;21.40;1.00;;;;;;5097111;28;20552;-88
2023/07/02 10:04:23;;;;;;;15.88;5.43;;;21.50;99.90;;;;;;5096213;28;20230;-85
2023/07/02 10:06:52;;;;;;;11.63;5.28;;;21.50;1.00;;;;;;5081073;28;20231;-90
2023/07/02 10:09:21;;;;;;;10.90;5.05;;;21.40;1.00;;;;;;5076172;28;20235;-84
2023/07/02 10:11:48;;;;;;;13.32;5.53;;;21.50;1.00;;;;;;5075105;28;20601;-84
2023/07/02 10:14:15;;;;;;;14.05;5.47;;;21.60;99.90;;;;;;5076038;28;20197;-90
2023/07/02 10:16:53;;;;;;;13.57;5.20;;;21.50;1.00;;;;;;5076609;28;20261;-89
2023/07/02 10:19:20;;;;;;;14.50;5.95;;;21.50;1.00;;;;;;5076788;28;20284;-89
2023/07/02 10:21:50;;;;;;;12.07;5.47;;;21.50;1.00;;;;;;5075937;28;20201;-85
2023/07/02 10:24:18;;;;;;;12.95;5.68;;;21.30;1.00;;;;;;5076107;28;20196;-83
2023/07/02 10:26:56;;;;;;;16.75;6.10;;;21.10;99.90;;;;;;5076256;28;20245;-90
2023/07/02 10:29:24;;;;;;;16.95;5.93;;;21.10;99.90;;;;;;5076277;28;20197;-88
2023/07/02 10:31:52;;;;;;;14.13;5.97;;;21.30;98.80;;;;;;5076712;28;20205;-86
2023/07/02 10:34:33;;;;;;;12.40;5.15;;;21.30;99.90;;;;;;5075755;28;20197;-87
2023/07/02 10:37:01;;;;;;;22.52;9.38;;;21.50;50.50;;;;;;5076042;28;20473;-86
2023/07/02 10:39:29;;;;;;;13.10;5.60;;;21.60;1.00;;;;;;5093831;28;20215;-85
2023/07/02 10:42:06;;;;;;;15.50;5.82;;;21.70;29.00;;;;;;5095790;28;20196;-84
2023/07/02 10:44:33;;;;;;;14.07;5.65;;;21.80;1.00;;;;;;5088188;28;20197;-82
2023/07/02 10:47:00;;;;;;;17.60;7.00;;;22.10;16.10;;;;;;5075726;28;20312;-85
2023/07/02 10:49:32;;;;;;;13.95;5.55;;;22.30;1.00;;;;;;5077811;28;20204;-90
2023/07/02 10:52:00;;;;;;;13.05;5.65;;;22.50;1.00;;;;;;5096657;28;20779;-89
2023/07/02 10:54:38;;;;;;;12.85;5.70;;;22.60;1.00;;;;;;5091953;28;20208;-88
2023/07/02 10:57:08;;;;;;;14.05;5.80;;;22.70;1.00;;;;;;5075573;28;20199;-84
2023/07/02 10:59:35;;;;;;;14.80;6.15;;;22.80;1.00;;;;;;5079388;28;20550;-90
2023/07/02 11:02:03;;;;;;;11.98;5.70;;;23.00;1.00;;;;;;5095466;28;20596;-83
2023/07/02 11:04:30;;;;;;;15.70;6.20;;;23.20;1.00;;;;;;5080842;28;20302;-87
2023/07/02 11:06:58;;;;;;;15.52;5.45;;;23.10;1.00;;;;;;5075876;28;20221;-88
2023/07/02 11:09:24;;;;;;;14.52;5.88;;;23.20;1.00;;;;;;5084971;28;20212;-86
2023/07/02 11:11:53;;;;;;;13.68;5.88;;;23.30;1.00;;;;;;5096171;28;20231;-84
2023/07/02 11:14:35;;;;;;;14.50;5.85;;;23.40;1.00;;;;;;5088196;28;20284;-82
2023/07/02 11:17:05;;;;;;;16.65;5.57;;;23.40;99.90;;;;;;5075547;28;20485;-85
2023/07/02 11:19:32;;;;;;;15.10;6.25;;;23.50;99.90;;;;;;5075328;28;20280;-84
2023/07/02 11:22:00;;;;;;;11.60;5.80;;;23.50;99.90;;;;;;5075341;28;20731;-85
2023/07/02 11:24:32;;;;;;;15.43;5.53;;;23.40;99.90;;;;;;5093872;28;20300;-87
2023/07/02 11:26:59;;;;;;;13.82;6.15;;;23.50;99.90;;;;;;5095181;28;20258;-82
2023/07/02 11:29:27;;;;;;;11.57;5.38;;;23.50;99.90;;;;;;5089466;28;20585;-77
2023/07/02 11:31:55;;;;;;;11.70;5.55;;;23.60;99.90;;;;;;5074961;28;20205;-86
2023/07/02 11:34:23;;;;;;;13.27;5.90;;;23.60;99.90;;;;;;5074329;28;20235;-79
2023/07/02 11:36:53;;;;;;;11.55;5.68;;;23.60;99.90;;;;;;5074767;28;20205;-86
2023/07/02 11:39:20;;;;;;;14.32;5.55;;;23.70;99.90;;;;;;5075398;28;20266;-83
2023/07/02 11:41:50;;;;;;;11.93;5.95;;;23.80;99.90;;;;;;5075811;28;20228;-87
2023/07/02 11:44:17;;;;;;;10.40;5.57;;;23.80;99.90;;;;;;5074803;28;20197;-85
2023/07/02 11:46:44;;;;;;;10.88;5.65;;;23.80;99.90;;;;;;5088551;28;20514;-89
2023/07/02 11:49:12;;;;;;;12.73;5.82;;;23.90;99.90;;;;;;5095820;28;20201;-83
2023/07/02 11:51:40;;;;;;;10.65;4.88;;;23.80;99.90;;;;;;5094795;28;20235;-84
2023/07/02 11:54:07;;;;;;;11.90;5.53;;;23.80;99.90;;;;;;5095605;28;20235;-85
2023/07/02 11:56:34;;;;;;;10.82;5.32;;;23.60;99.90;;;;;;5076325;28;20201;-84
2023/07/02 11:59:01;;;;;;;11.35;5.50;;;23.70;99.90;;;;;;5074609;28;20205;-83
2023/07/02 12:01:28;;;;;;;12.93;5.63;;;23.60;99.90;;;;;;5074935;28;20209;-87
2023/07/02 12:03:55;;;;;;;12.77;5.18;;;23.70;99.90;;;;;;5074421;28;20225;-90
2023/07/02 12:06:23;;;;;;;14.32;5.65;;;23.80;99.90;;;;;;5093487;28;20857;-84
2023/07/02 12:08:50;;;;;;;11.43;5.32;;;23.80;99.90;;;;;;5095352;28;20200;-82
2023/07/02 12:11:17;;;;;;;13.15;5.63;;;23.80;99.90;;;;;;5095177;28;20189;-86
2023/07/02 12:13:44;;;;;;;10.02;5.18;;;23.80;99.90;;;;;;5094865;28;20211;-80
2023/07/02 12:16:11;;;;;;;13.60;5.05;;;23.90;99.90;;;;;;5095284;28;20207;-89
2023/07/02 12:18:38;;;;;;;11.75;5.50;;;23.80;99.90;;;;;;5094341;28;20203;-88
2023/07/02 12:21:05;;;;;;;9.98;5.35;;;23.80;99.90;;;;;;5095148;28;20444;-89
2023/07/02 12:23:33;;;;;;;11.32;5.00;;;23.90;99.90;;;;;;5075878;28;20775;-80
2023/07/02 12:26:00;;;;;;;10.68;5.63;;;23.80;99.90;;;;;;5074534;28;20267;-83
2023/07/02 12:28:27;;;;;;;14.15;6.07;;;23.90;99.90;;;;;;5074455;28;20205;-81
2023/07/02 12:30:54;;;;;;;10.25;5.40;;;23.90;99.90;;;;;;5074289;28;20208;-77
2023/07/02 12:33:21;;;;;;;13.75;5.28;;;24.10;99.90;;;;;;5073504;28;20825;-82
2023/07/02 12:35:48;;;;;;;10.90;5.15;;;24.10;99.90;;;;;;5074153;28;20227;-85
2023/07/02 12:38:15;;;;;;;12.55;5.70;;;24.00;99.90;;;;;;5074052;28;20204;-83
2023/07/02 12:40:43;;;;;;;11.60;5.00;;;24.00;99.90;;;;;;5074344;28;20225;-88
2023/07/02 12:43:10;;;;;;;14.05;6.55;;;24.10;99.90;;;;;;5074610;28;20208;-85
2023/07/02 12:45:37;;;;;;;15.07;5.82;;;24.00;99.90;;;;;;5076306;28;20197;-82